Kansas City, Missouri
Traffic Map
Current Weather Conditions
Kansas City, Missouri
Clear
Clear
41°
Feels Like: 37°
Wind Chill: 37° Ceiling: Unl
Heat Index: 41° Visibility: 10mi
Dew Point: 31° Wind: 6mph
Humidity: 67% Direction: 310° (NW)
Pressure: 30.15in Gusts: 0mph
Raw Report DataKMKC 170854Z 31005KT 10SM CLR 05/M01 A3015 RMK AO2 SLP208 T00501006 51018
Traffic Incident Summary
Active as of:
Severity:
Category:
InformationThere was an issue retrieving the traffic information for this location. Please try a different location or try again shortly.
Advertisements
At Last! Intellicast now available for iPhone and Android